Alpine, OR

11:17 AM PDT on September 22, 2014 (GMT -0700)
Monroe | Change Station
CLOSE
Current Station
Personal Weather Station
Location: Monroe, OR
Elevation: 410 ft
Nearby Weather Stations

Elev 410 ft 44.32 °N, 123.31 °W | Updated 1 minute ago

Overcast
Overcast
65.0 °F
Feels Like 65.0 °F
N
1.0
Wind Variable Wind from SW
Gusts 3.0 mph

Today
High -- | Low -- °F
--% Chance of Precip.
Yesterday
High -- | Low -- °F
Precip. -- in
7:00 AM 7:10 PM
Waning Crescent, 2% visible
Pressure 30.04 in
Visibility 10.0 miles
Clouds Overcast 2400 ft
Dew Point 55 °F
Humidity 70%
Rainfall 0.00 in
Snow Depth 0 in , 0 in , 0 in
UV 1 out of 12
Pollen 1.60 out of 12
Ozone Good
PM2.5 Good
Flu Activity Not available.
METAR KCVO 221755Z AUTO 00000KT 10SM OVC024 18/12 A3004 RMK AO1 10180 20150 52003

More Conditions Fewer Conditions

Pressure 30.04 in
Visibility 10.0 miles
Clouds Overcast 2400 ft
Dew Point 55 °F
Humidity 70%
Rainfall 0.00 in
Snow Depth 0 in , 0 in , 0 in
UV 1 out of 12
Pollen 1.60 out of 12
Ozone Good
PM2.5 Good
Flu Activity Not available.
METAR KCVO 221755Z AUTO 00000KT 10SM OVC024 18/12 A3004 RMK AO1 10180 20150 52003

More Conditions Fewer Conditions

10-Day Weather Forecast

Almanac

Astronomy

Sep. 22, 2014 Rise Set
Actual Time 7:00 AM PDT 7:10 PM PDT
Civil Twilight 6:31 AM PDT 7:39 PM PDT
Nautical Twilight 5:57 AM PDT 8:13 PM PDT
Astronomical Twilight 5:22 AM PDT 8:48 PM PDT
Moon 5:32 AM PDT 6:22 PM PDT
Length of Visible Light 13h 07m
Length of Day
12h 09m
Tomorrow will be 3m 2s shorter.
Waning Crescent, 2% of the Moon is Illuminated
Today
Waning Crescent
Sep 24
New
Oct 1
First Quarter
Oct 8
Full
Oct 15
Last Quarter

Today's Extremes

State Highs State Lows

Community

WunderPhotos

Upload Photos

1,755,498 photos uploaded!

WunderBlogs® & News

By Dr. Jeff Masters
Director of Meteorology, Weather Underground
By Kari Strenfel
Meteorologist, Weather Underground
By Christopher C. Burt
Weather Historian, Weather Underground
September 22, 2014
September 22, 2014
September 22, 2014

Nearby

Air Quality

  Air Quality AQ Index Pollutant
Yesterday Good
PM2.5
Yesterday Good
OZONE
Current Good
PM2.5
Current Good
OZONE
Monday Moderate
PM2.5
Tuesday Good
PM2.5

Snow Depth

Station Depth Elevation
Strawberry 0 in 5760 ft
Seine Creek 0 in 2000 ft
Cold Springs Camp 0 in 6100 ft
Sevenmile Marsh 0 in 6200 ft
Silver Creek 0 in 5720 ft

Earthquake Activity

City Distance Mag. Time & Date
No recent earthquake activity has been reported nearby.
Minimum magnitude displayed is 2.5.

Coastal Water Temperatures

Place Temperature
No Stations Reporting

Nearby Weather Stations